Time;durP1;ratioP1;P1;durP2;ratioP2;P2;SDS_P1;SDS_P2;PMS_P1;PMS_P2;Temp;Humidity;BMP_temperature;BMP_pressure;BME280_temperature;BME280_humidity;BME280_pressure;Samples;Min_cycle;Max_cycle;Signal;HPM_P1;HPM_P2
2023/07/26 00:01:54;;;;;;;1.53;1.27;;;;;12.80;95608.00;;;;5096778;28;20190;-54
2023/07/26 00:04:21;;;;;;;1.00;1.00;;;;;12.70;95616.00;;;;5096958;28;20573;-54
2023/07/26 00:06:48;;;;;;;1.33;1.33;;;;;12.70;95610.00;;;;5096590;28;20677;-54
2023/07/26 00:09:17;;;;;;;1.90;1.80;;;;;12.70;95615.00;;;;5096780;28;20269;-54
2023/07/26 00:11:44;;;;;;;2.17;1.97;;;;;12.80;95608.00;;;;5096854;28;20194;-54
2023/07/26 00:14:13;;;;;;;1.10;1.10;;;;;12.80;95610.00;;;;5096456;28;20214;-54
2023/07/26 00:16:41;;;;;;;1.27;1.27;;;;;12.80;95608.00;;;;5096893;28;20222;-54
2023/07/26 00:19:08;;;;;;;1.30;1.30;;;;;12.80;95608.00;;;;5096417;28;20265;-54
2023/07/26 00:21:36;;;;;;;2.77;1.93;;;;;12.80;95619.00;;;;5096278;28;20209;-54
2023/07/26 00:24:03;;;;;;;1.53;1.47;;;;;12.70;95614.00;;;;5096200;28;20263;-54
2023/07/26 00:26:32;;;;;;;1.70;1.63;;;;;12.70;95620.00;;;;5096463;28;20525;-54
2023/07/26 00:28:59;;;;;;;3.80;1.47;;;;;12.70;95628.00;;;;5096131;28;20214;-54
2023/07/26 00:31:26;;;;;;;1.40;1.30;;;;;12.60;95632.00;;;;5096165;28;20244;-54
2023/07/26 00:33:54;;;;;;;1.60;1.50;;;;;12.60;95631.00;;;;5095894;28;20214;-55
2023/07/26 00:36:21;;;;;;;1.20;1.10;;;;;12.50;95631.00;;;;5096330;28;20183;-54
2023/07/26 00:38:49;;;;;;;1.17;1.17;;;;;12.50;95623.00;;;;5096548;28;20197;-54
2023/07/26 00:41:16;;;;;;;1.73;1.63;;;;;12.50;95578.00;;;;5096324;28;20198;-54
2023/07/26 00:43:45;;;;;;;2.13;2.03;;;;;12.60;95634.00;;;;5096064;28;20194;-54
2023/07/26 00:46:13;;;;;;;0.93;0.93;;;;;12.40;95627.00;;;;5095900;28;20197;-54
2023/07/26 00:48:42;;;;;;;1.73;1.63;;;;;12.40;95628.00;;;;5095947;28;20214;-58
2023/07/26 00:51:10;;;;;;;4.23;1.80;;;;;12.50;95630.00;;;;5095854;28;20206;-55
2023/07/26 00:53:38;;;;;;;1.13;1.13;;;;;12.50;95625.00;;;;5096039;28;20198;-54
2023/07/26 00:56:05;;;;;;;1.50;1.40;;;;;12.60;95635.00;;;;5096303;28;20201;-54
2023/07/26 00:58:33;;;;;;;1.17;1.17;;;;;12.50;95644.00;;;;5095818;28;20211;-54
2023/07/26 01:01:03;;;;;;;0.87;0.83;;;;;12.40;95636.00;;;;5095707;28;20685;-54
2023/07/26 01:03:31;;;;;;;1.00;1.00;;;;;12.50;95640.00;;;;5095404;28;20203;-54
2023/07/26 01:06:07;;;;;;;2.00;1.87;;;;;12.50;95644.00;;;;5096037;28;20198;-54
2023/07/26 01:08:43;;;;;;;1.40;1.30;;;;;12.50;95650.00;;;;5095580;28;20179;-54
2023/07/26 01:11:17;;;;;;;1.70;1.60;;;;;12.40;95648.00;;;;5095801;28;20530;-55
2023/07/26 01:13:52;;;;;;;1.60;1.50;;;;;12.20;95646.00;;;;5077204;28;20684;-54
2023/07/26 01:16:22;;;;;;;1.30;1.30;;;;;12.30;95657.00;;;;5077510;28;20661;-54
2023/07/26 01:18:49;;;;;;;0.70;0.70;;;;;12.20;95650.00;;;;5095227;28;20247;-54
2023/07/26 01:21:17;;;;;;;1.37;1.27;;;;;12.20;95649.00;;;;5095273;28;20199;-54
2023/07/26 01:23:45;;;;;;;3.13;1.50;;;;;12.20;95661.00;;;;5095200;28;20530;-54
2023/07/26 01:26:13;;;;;;;1.13;1.13;;;;;12.30;95648.00;;;;5076917;28;20561;-54
2023/07/26 01:28:40;;;;;;;7.00;1.63;;;;;12.40;95645.00;;;;5095318;28;20216;-53
2023/07/26 01:31:09;;;;;;;1.27;1.20;;;;;12.30;95650.00;;;;5095301;28;20187;-54
2023/07/26 01:33:37;;;;;;;1.07;1.07;;;;;12.30;95653.00;;;;5095383;28;20249;-54
2023/07/26 01:36:06;;;;;;;0.73;0.73;;;;;12.30;95649.00;;;;5095132;28;20195;-54
2023/07/26 01:38:34;;;;;;;1.50;1.40;;;;;12.40;95647.00;;;;5095320;28;20219;-54
2023/07/26 01:41:03;;;;;;;0.97;0.97;;;;;12.40;95655.00;;;;5094862;28;20198;-54
2023/07/26 01:43:31;;;;;;;1.17;1.17;;;;;12.40;95652.00;;;;5094788;28;20182;-54
2023/07/26 01:45:59;;;;;;;3.97;1.97;;;;;12.20;95653.00;;;;5094832;28;20213;-54
2023/07/26 01:48:26;;;;;;;1.83;1.73;;;;;12.10;95658.00;;;;5094692;28;20187;-54
2023/07/26 01:50:53;;;;;;;0.87;0.87;;;;;12.20;95650.00;;;;5094968;28;20293;-54
2023/07/26 01:53:21;;;;;;;2.10;1.83;;;;;12.20;95656.00;;;;5094662;28;20195;-54
2023/07/26 01:55:49;;;;;;;1.17;1.17;;;;;12.10;95655.00;;;;5095403;28;20214;-54
2023/07/26 01:58:17;;;;;;;1.07;1.07;;;;;12.20;95658.00;;;;5094431;28;20215;-54
2023/07/26 02:00:45;;;;;;;1.93;1.83;;;;;12.20;95661.00;;;;5094448;28;20206;-54
2023/07/26 02:03:12;;;;;;;0.77;0.77;;;;;12.30;95660.00;;;;5095199;28;20190;-54
2023/07/26 02:05:45;;;;;;;0.90;0.90;;;;;12.30;95656.00;;;;5094249;28;20272;-54
2023/07/26 02:08:12;;;;;;;1.70;1.60;;;;;12.30;95663.00;;;;5094314;28;20179;-54
2023/07/26 02:10:40;;;;;;;0.73;0.73;;;;;12.30;95657.00;;;;5094141;28;20200;-54
2023/07/26 02:13:08;;;;;;;1.40;1.30;;;;;12.30;95662.00;;;;5094431;28;20187;-54
2023/07/26 02:15:37;;;;;;;0.97;0.97;;;;;12.30;95664.00;;;;5093320;28;20210;-54
2023/07/26 02:18:04;;;;;;;1.43;1.37;;;;;12.30;95668.00;;;;5094103;28;20268;-54
2023/07/26 02:20:32;;;;;;;0.70;0.70;;;;;12.20;95667.00;;;;5094390;28;20190;-54
2023/07/26 02:22:59;;;;;;;0.70;0.70;;;;;12.20;95670.00;;;;5075910;28;20285;-54
2023/07/26 02:25:27;;;;;;;1.00;1.00;;;;;12.20;95680.00;;;;5093953;28;20210;-54
2023/07/26 02:27:54;;;;;;;1.30;1.23;;;;;12.20;95676.00;;;;5093946;28;20657;-54
2023/07/26 02:30:22;;;;;;;1.70;1.60;;;;;12.10;95679.00;;;;5094404;28;20197;-53
2023/07/26 02:32:50;;;;;;;1.47;1.40;;;;;12.20;95679.00;;;;5094177;28;20553;-54
2023/07/26 02:35:18;;;;;;;0.70;0.70;;;;;12.30;95679.00;;;;5093750;28;20222;-54
2023/07/26 02:37:45;;;;;;;1.20;1.20;;;;;12.20;95679.00;;;;5093655;28;20246;-53
2023/07/26 02:40:13;;;;;;;0.90;0.90;;;;;12.20;95681.00;;;;5093959;28;20293;-54
2023/07/26 02:42:41;;;;;;;2.60;1.33;;;;;12.20;95684.00;;;;5075572;28;20206;-54
2023/07/26 02:45:09;;;;;;;1.03;0.93;;;;;12.00;95687.00;;;;5093712;28;20203;-54
2023/07/26 02:47:36;;;;;;;0.80;0.80;;;;;12.00;95690.00;;;;5075568;28;20191;-54
2023/07/26 02:50:06;;;;;;;0.80;0.80;;;;;12.10;95692.00;;;;5075428;28;20194;-53
2023/07/26 02:52:33;;;;;;;1.10;1.10;;;;;12.20;95689.00;;;;5093557;28;20194;-54
2023/07/26 02:55:01;;;;;;;0.90;0.90;;;;;12.20;95699.00;;;;5093398;28;20210;-54
2023/07/26 02:57:28;;;;;;;0.80;0.80;;;;;12.10;95690.00;;;;5094127;28;20580;-54
2023/07/26 02:59:55;;;;;;;1.40;1.37;;;;;12.10;95687.00;;;;5093497;28;20300;-54
2023/07/26 03:02:23;;;;;;;1.53;1.43;;;;;12.20;95707.00;;;;5093302;28;20198;-54
2023/07/26 03:04:51;;;;;;;0.60;0.60;;;;;12.20;95699.00;;;;5093462;28;20222;-54
2023/07/26 03:07:20;;;;;;;0.67;0.67;;;;;12.20;95707.00;;;;5093521;28;20275;-54
2023/07/26 03:09:47;;;;;;;0.70;0.70;;;;;12.20;95714.00;;;;5093511;28;20542;-54
2023/07/26 03:12:15;;;;;;;0.83;0.83;;;;;12.20;95717.00;;;;5093240;28;20187;-54
2023/07/26 03:14:42;;;;;;;1.23;1.23;;;;;12.20;95716.00;;;;5093331;28;20218;-54
2023/07/26 03:17:10;;;;;;;0.60;0.60;;;;;12.20;95728.00;;;;5093361;28;20206;-54
2023/07/26 03:19:37;;;;;;;6.03;1.07;;;;;12.20;95723.00;;;;5093056;28;20191;-54
2023/07/26 03:22:05;;;;;;;0.80;0.80;;;;;12.20;95717.00;;;;5093306;28;20213;-54
2023/07/26 03:24:34;;;;;;;0.77;0.77;;;;;12.20;95708.00;;;;5092994;28;20214;-55
2023/07/26 03:27:01;;;;;;;1.30;1.30;;;;;12.20;95715.00;;;;5092922;28;20194;-54
2023/07/26 03:29:28;;;;;;;5.47;1.70;;;;;12.20;95736.00;;;;5092976;28;20183;-54
2023/07/26 03:31:56;;;;;;;1.23;1.13;;;;;12.30;95729.00;;;;5093166;28;20195;-54
2023/07/26 03:34:23;;;;;;;0.87;0.87;;;;;12.20;95736.00;;;;5093043;28;20320;-54
2023/07/26 03:36:51;;;;;;;0.80;0.80;;;;;12.10;95737.00;;;;5092867;28;20577;-54
2023/07/26 03:39:18;;;;;;;0.70;0.70;;;;;11.90;95735.00;;;;5093049;28;20643;-57
2023/07/26 03:41:47;;;;;;;0.97;0.97;;;;;12.30;95733.00;;;;5092843;28;20220;-55
2023/07/26 03:44:14;;;;;;;1.10;1.10;;;;;12.00;95731.00;;;;5092898;28;20313;-54
2023/07/26 03:46:41;;;;;;;0.70;0.70;;;;;11.90;95737.00;;;;5092860;28;20198;-54
2023/07/26 03:49:09;;;;;;;0.70;0.70;;;;;11.90;95728.00;;;;5092784;28;20734;-54
2023/07/26 03:51:36;;;;;;;0.63;0.63;;;;;11.80;95739.00;;;;5092723;28;20657;-55
2023/07/26 03:54:04;;;;;;;1.90;1.77;;;;;11.80;95746.00;;;;5092966;28;20223;-55
2023/07/26 03:56:31;;;;;;;2.30;1.73;;;;;11.70;95736.00;;;;5092640;28;20195;-55
2023/07/26 03:59:00;;;;;;;1.00;1.00;;;;;11.70;95739.00;;;;5092616;28;20215;-54
2023/07/26 04:01:27;;;;;;;1.83;1.70;;;;;11.70;95727.00;;;;5092858;28;20283;-54
2023/07/26 04:03:54;;;;;;;0.93;0.93;;;;;11.80;95732.00;;;;5092568;28;20215;-54
2023/07/26 04:06:22;;;;;;;1.30;1.20;;;;;11.70;95734.00;;;;5092670;28;20199;-55
2023/07/26 04:08:49;;;;;;;0.80;0.80;;;;;11.90;95741.00;;;;5092943;28;20202;-54
2023/07/26 04:11:16;;;;;;;1.13;1.13;;;;;11.80;95734.00;;;;5093183;28;20661;-54
2023/07/26 04:13:44;;;;;;;1.47;1.37;;;;;11.80;95723.00;;;;5092627;28;20553;-55
2023/07/26 04:16:18;;;;;;;1.30;1.20;;;;;11.90;95732.00;;;;5093054;28;20197;-54
2023/07/26 04:18:45;;;;;;;1.20;1.20;;;;;12.00;95736.00;;;;5092460;28;20211;-55
2023/07/26 04:21:14;;;;;;;1.27;1.27;;;;;12.30;95736.00;;;;5092428;28;20191;-54
2023/07/26 04:23:42;;;;;;;1.47;1.37;;;;;12.40;95736.00;;;;5092630;28;20217;-54
2023/07/26 04:26:09;;;;;;;0.80;0.80;;;;;12.40;95740.00;;;;5092433;28;20195;-55
2023/07/26 04:28:38;;;;;;;0.80;0.80;;;;;12.30;95738.00;;;;5092733;28;20228;-55
2023/07/26 04:31:05;;;;;;;1.00;1.00;;;;;12.30;95738.00;;;;5092542;28;20269;-54
2023/07/26 04:33:34;;;;;;;1.80;1.70;;;;;12.20;95742.00;;;;5092344;28;20202;-55
2023/07/26 04:36:01;;;;;;;1.03;1.03;;;;;12.40;95749.00;;;;5092265;28;20211;-55
2023/07/26 04:38:29;;;;;;;1.30;1.20;;;;;12.50;95750.00;;;;5093142;28;20214;-55
2023/07/26 04:40:56;;;;;;;1.63;1.53;;;;;12.50;95752.00;;;;5096616;28;20191;-55
2023/07/26 04:43:23;;;;;;;1.40;1.30;;;;;12.50;95749.00;;;;5096058;28;20202;-55
2023/07/26 04:45:52;;;;;;;1.00;1.00;;;;;12.40;95749.00;;;;5077620;28;20238;-54
2023/07/26 04:48:20;;;;;;;1.03;1.03;;;;;12.30;95748.00;;;;5095907;28;20666;-54
2023/07/26 04:50:50;;;;;;;0.77;0.77;;;;;12.30;95752.00;;;;5095855;28;20218;-54
2023/07/26 04:53:18;;;;;;;2.53;1.43;;;;;12.30;95753.00;;;;5095885;28;20191;-54
2023/07/26 04:55:47;;;;;;;0.93;0.93;;;;;11.90;95766.00;;;;5096500;28;20217;-55
2023/07/26 04:58:14;;;;;;;0.83;0.83;;;;;11.80;95764.00;;;;5095700;28;20218;-54
2023/07/26 05:00:42;;;;;;;1.93;1.33;;;;;11.80;95758.00;;;;5096445;28;20191;-54
2023/07/26 05:03:11;;;;;;;0.87;0.87;;;;;11.90;95770.00;;;;5096504;28;20190;-54
2023/07/26 05:05:39;;;;;;;0.83;0.83;;;;;11.70;95767.00;;;;5095664;28;20215;-54
2023/07/26 05:08:08;;;;;;;0.80;0.80;;;;;11.70;95767.00;;;;5096360;28;20183;-54
2023/07/26 05:10:36;;;;;;;0.93;0.93;;;;;11.80;95759.00;;;;5096296;28;20198;-54
2023/07/26 05:13:03;;;;;;;1.00;1.00;;;;;12.10;95754.00;;;;5077342;28;20251;-54
2023/07/26 05:15:31;;;;;;;1.03;1.03;;;;;12.10;95765.00;;;;5095690;28;20215;-54
2023/07/26 05:17:58;;;;;;;0.80;0.80;;;;;12.30;95761.00;;;;5077179;28;20236;-55
2023/07/26 05:20:26;;;;;;;2.33;1.53;;;;;12.30;95759.00;;;;5095389;28;20213;-56
2023/07/26 05:22:53;;;;;;;1.00;1.00;;;;;12.30;95764.00;;;;5095758;28;20206;-55
2023/07/26 05:25:22;;;;;;;0.90;0.90;;;;;12.50;95773.00;;;;5095563;28;20214;-55
2023/07/26 05:27:49;;;;;;;0.87;0.87;;;;;12.50;95769.00;;;;5095302;28;20229;-54
2023/07/26 05:30:18;;;;;;;0.97;0.97;;;;;12.50;95768.00;;;;5095191;28;20195;-57
2023/07/26 05:32:45;;;;;;;1.20;1.20;;;;;12.60;95777.00;;;;5095070;28;20267;-57
2023/07/26 05:35:13;;;;;;;0.77;0.77;;;;;12.60;95779.00;;;;5094986;28;20219;-54
2023/07/26 05:37:40;;;;;;;1.00;1.00;;;;;12.50;95779.00;;;;5095011;28;20661;-54
2023/07/26 05:40:09;;;;;;;1.07;1.07;;;;;12.50;95779.00;;;;5095250;28;20551;-54
2023/07/26 05:42:38;;;;;;;0.70;0.70;;;;;12.50;95783.00;;;;5094926;28;20195;-54
2023/07/26 05:45:06;;;;;;;1.10;1.10;;;;;12.50;95793.00;;;;5094900;28;20210;-55
2023/07/26 05:47:37;;;;;;;1.00;1.00;;;;;12.60;95786.00;;;;5095070;28;20195;-56
2023/07/26 05:50:06;;;;;;;0.80;0.80;;;;;12.70;95790.00;;;;5094099;28;20254;-54
2023/07/26 05:52:33;;;;;;;1.10;1.10;;;;;12.50;95791.00;;;;5095200;28;20190;-56
2023/07/26 05:55:00;;;;;;;0.93;0.93;;;;;12.60;95796.00;;;;5094650;28;20215;-55
2023/07/26 05:57:28;;;;;;;1.40;1.37;;;;;12.60;95786.00;;;;5076486;28;20662;-55
2023/07/26 05:59:57;;;;;;;0.90;0.90;;;;;12.70;95785.00;;;;5094453;28;20214;-55
2023/07/26 06:02:24;;;;;;;1.90;1.80;;;;;12.80;95789.00;;;;5094784;28;20680;-55
2023/07/26 06:04:52;;;;;;;0.87;0.87;;;;;12.70;95792.00;;;;5094664;28;20609;-55
2023/07/26 06:07:20;;;;;;;0.80;0.80;;;;;12.60;95801.00;;;;5094390;28;20234;-54
2023/07/26 06:09:47;;;;;;;1.03;1.03;;;;;12.70;95796.00;;;;5076082;28;20570;-54
2023/07/26 06:12:14;;;;;;;3.77;1.50;;;;;12.60;95796.00;;;;5094506;28;20228;-54
2023/07/26 06:14:42;;;;;;;0.73;0.73;;;;;12.80;95792.00;;;;5094396;28;20264;-54
2023/07/26 06:17:12;;;;;;;0.87;0.87;;;;;12.50;95805.00;;;;5094232;28;20269;-55
2023/07/26 06:19:39;;;;;;;1.07;0.83;;;;;12.50;95801.00;;;;5094395;28;20215;-56
2023/07/26 06:22:07;;;;;;;1.17;1.17;;;;;12.40;95797.00;;;;5094253;28;20194;-56
2023/07/26 06:24:34;;;;;;;0.80;0.80;;;;;12.50;95799.00;;;;5094098;28;20211;-55
2023/07/26 06:27:03;;;;;;;0.93;0.93;;;;;12.50;95800.00;;;;5094117;28;20225;-55
2023/07/26 06:29:33;;;;;;;1.00;1.00;;;;;12.50;95811.00;;;;5094530;28;20187;-55
2023/07/26 06:32:00;;;;;;;0.90;0.90;;;;;12.30;95821.00;;;;5093976;28;20198;-54
2023/07/26 06:34:29;;;;;;;0.93;0.93;;;;;12.30;95821.00;;;;5093977;28;20229;-54
2023/07/26 06:36:56;;;;;;;0.80;0.80;;;;;12.30;95824.00;;;;5094144;28;20214;-54
2023/07/26 06:39:27;;;;;;;0.90;0.90;;;;;12.40;95838.00;;;;5093772;28;20218;-54
2023/07/26 06:41:54;;;;;;;1.43;1.37;;;;;12.40;95832.00;;;;5094314;28;20195;-54
2023/07/26 06:44:21;;;;;;;0.93;0.93;;;;;12.30;95839.00;;;;5093683;28;20207;-54
2023/07/26 06:46:49;;;;;;;4.00;1.23;;;;;12.30;95838.00;;;;5093702;28;20256;-55
2023/07/26 06:49:16;;;;;;;0.87;0.87;;;;;12.20;95839.00;;;;5093657;28;20198;-55
2023/07/26 06:51:45;;;;;;;1.27;1.27;;;;;12.30;95840.00;;;;5094178;28;20191;-55
2023/07/26 06:54:12;;;;;;;2.27;1.63;;;;;12.40;95846.00;;;;5075393;28;20223;-54
2023/07/26 06:56:40;;;;;;;0.87;0.87;;;;;12.40;95836.00;;;;5093501;28;20183;-54
2023/07/26 06:59:11;;;;;;;1.10;1.10;;;;;12.40;95835.00;;;;5093323;28;20229;-56
2023/07/26 07:01:41;;;;;;;2.00;1.70;;;;;12.50;95829.00;;;;5093574;28;20179;-56
2023/07/26 07:04:09;;;;;;;1.30;1.20;;;;;12.40;95828.00;;;;5093532;28;20217;-55
2023/07/26 07:06:36;;;;;;;1.03;1.03;;;;;12.50;95825.00;;;;5093647;28;20187;-55
2023/07/26 07:09:05;;;;;;;0.97;0.97;;;;;12.60;95835.00;;;;5093370;28;20195;-54
2023/07/26 07:11:32;;;;;;;1.73;1.63;;;;;12.60;95834.00;;;;5093529;28;20194;-55
2023/07/26 07:14:00;;;;;;;1.07;1.07;;;;;12.60;95846.00;;;;5093322;28;20690;-55
2023/07/26 07:16:28;;;;;;;1.17;1.10;;;;;12.40;95844.00;;;;5093260;28;20240;-56
2023/07/26 07:18:55;;;;;;;0.80;0.80;;;;;12.60;95854.00;;;;5093394;28;20215;-56
2023/07/26 07:21:23;;;;;;;1.67;1.57;;;;;12.40;95852.00;;;;5093182;28;20195;-56
2023/07/26 07:23:50;;;;;;;0.80;0.80;;;;;12.30;95856.00;;;;5093472;28;20230;-56
2023/07/26 07:26:19;;;;;;;0.70;0.70;;;;;12.10;95854.00;;;;5093032;28;20214;-56
2023/07/26 07:28:46;;;;;;;0.80;0.80;;;;;12.00;95863.00;;;;5093312;28;20197;-54
2023/07/26 07:31:14;;;;;;;1.03;1.03;;;;;12.00;95846.00;;;;5093014;28;20201;-55
2023/07/26 07:33:41;;;;;;;1.07;1.07;;;;;12.20;95857.00;;;;5093009;28;20585;-55
2023/07/26 07:36:10;;;;;;;0.80;0.80;;;;;12.10;95842.00;;;;5093069;28;20183;-55
2023/07/26 07:38:37;;;;;;;1.00;1.00;;;;;12.20;95843.00;;;;5092919;28;20206;-58
2023/07/26 07:41:04;;;;;;;0.80;0.80;;;;;12.30;95849.00;;;;5093153;28;20214;-54
2023/07/26 07:43:33;;;;;;;0.83;0.83;;;;;12.30;95841.00;;;;5074828;28;20202;-54
2023/07/26 07:46:01;;;;;;;1.10;1.10;;;;;12.30;95852.00;;;;5093245;28;20577;-54
2023/07/26 07:48:28;;;;;;;0.80;0.80;;;;;12.30;95839.00;;;;5093686;28;20195;-54
2023/07/26 07:50:56;;;;;;;1.20;1.20;;;;;12.40;95837.00;;;;5093160;28;20186;-54
2023/07/26 07:53:24;;;;;;;1.07;1.07;;;;;12.30;95842.00;;;;5093172;28;20559;-54
2023/07/26 07:55:52;;;;;;;0.80;0.80;;;;;12.20;95840.00;;;;5092802;28;20209;-54
2023/07/26 07:58:20;;;;;;;0.70;0.70;;;;;12.50;95828.00;;;;5092907;28;20283;-54
2023/07/26 08:00:49;;;;;;;0.90;0.90;;;;;12.30;95836.00;;;;5092673;28;20688;-55
2023/07/26 08:03:17;;;;;;;0.70;0.70;;;;;12.70;95831.00;;;;5092758;28;20187;-54
2023/07/26 08:05:44;;;;;;;0.50;0.50;;;;;12.50;95842.00;;;;5092657;28;20214;-54
2023/07/26 08:08:11;;;;;;;0.80;0.80;;;;;12.50;95837.00;;;;5092730;28;20677;-55
2023/07/26 08:10:39;;;;;;;0.50;0.50;;;;;12.40;95839.00;;;;5093316;28;20530;-55
2023/07/26 08:13:06;;;;;;;0.70;0.70;;;;;12.60;95844.00;;;;5093494;28;20252;-56
2023/07/26 08:15:37;;;;;;;0.70;0.70;;;;;12.50;95851.00;;;;5096552;28;20233;-55
2023/07/26 08:18:06;;;;;;;0.57;0.57;;;;;12.40;95851.00;;;;5096838;28;20206;-55
2023/07/26 08:20:34;;;;;;;1.07;1.07;;;;;12.50;95852.00;;;;5096536;28;20225;-56
2023/07/26 08:23:02;;;;;;;0.90;0.90;;;;;12.50;95852.00;;;;5078315;28;20195;-56
2023/07/26 08:25:29;;;;;;;0.70;0.70;;;;;12.60;95849.00;;;;5096443;28;20218;-55
2023/07/26 08:27:57;;;;;;;0.70;0.70;;;;;12.60;95854.00;;;;5096622;28;20198;-54
2023/07/26 08:30:24;;;;;;;0.63;0.63;;;;;12.80;95864.00;;;;5096255;28;20678;-54
2023/07/26 08:32:52;;;;;;;0.73;0.73;;;;;12.70;95865.00;;;;5096306;28;20199;-54
2023/07/26 08:35:21;;;;;;;0.90;0.90;;;;;12.60;95863.00;;;;5101507;22;20756;-53
2023/07/26 08:37:48;;;;;;;0.80;0.80;;;;;12.40;95867.00;;;;5076146;28;20195;-54
2023/07/26 08:40:16;;;;;;;0.70;0.70;;;;;12.40;95860.00;;;;5076003;28;20597;-54
2023/07/26 08:42:44;;;;;;;0.60;0.60;;;;;12.20;95860.00;;;;5075970;28;20199;-54
2023/07/26 08:45:12;;;;;;;0.50;0.50;;;;;12.20;95869.00;;;;5076073;28;20211;-53
2023/07/26 08:47:40;;;;;;;0.60;0.60;;;;;12.00;95863.00;;;;5075829;28;20677;-54
2023/07/26 08:50:08;;;;;;;0.53;0.53;;;;;12.20;95865.00;;;;5075972;28;20196;-53
2023/07/26 08:52:37;;;;;;;0.60;0.60;;;;;12.20;95873.00;;;;5075730;28;20279;-54
2023/07/26 08:55:06;;;;;;;0.70;0.70;;;;;12.40;95872.00;;;;5075678;28;20249;-54
2023/07/26 08:57:34;;;;;;;0.60;0.60;;;;;12.30;95870.00;;;;5075648;28;20187;-53
2023/07/26 09:00:05;;;;;;;0.73;0.73;;;;;12.10;95868.00;;;;5075826;28;20592;-54
2023/07/26 09:02:35;;;;;;;0.70;0.70;;;;;12.10;95862.00;;;;5075622;28;20187;-55
2023/07/26 09:05:03;;;;;;;0.70;0.70;;;;;12.20;95868.00;;;;5075626;28;20208;-55
2023/07/26 09:07:30;;;;;;;0.70;0.70;;;;;12.40;95862.00;;;;5075961;28;20196;-54
2023/07/26 09:09:59;;;;;;;0.60;0.60;;;;;12.60;95851.00;;;;5076159;28;20191;-54
2023/07/26 09:12:28;;;;;;;0.80;0.80;;;;;12.80;95850.00;;;;5057465;28;20253;-58
2023/07/26 09:14:58;;;;;;;0.67;0.67;;;;;13.00;95847.00;;;;5075311;28;20234;-56
2023/07/26 09:17:38;;;;;;;0.50;0.50;;;;;13.30;95850.00;;;;5075364;28;20198;-55
2023/07/26 09:20:18;;;;;;;0.53;0.53;;;;;13.60;95839.00;;;;5075238;28;20222;-57
2023/07/26 09:22:45;;;;;;;0.60;0.60;;;;;13.80;95846.00;;;;5075156;28;20179;-54
2023/07/26 09:25:21;;;;;;;0.60;0.60;;;;;14.10;95834.00;;;;5075166;28;20211;-55
2023/07/26 09:27:56;;;;;;;0.87;0.87;;;;;14.50;95838.00;;;;5075511;28;20182;-55
2023/07/26 09:30:24;;;;;;;0.70;0.70;;;;;14.50;95838.00;;;;5075109;28;20646;-54
2023/07/26 09:32:51;;;;;;;0.60;0.60;;;;;14.70;95838.00;;;;5075303;28;20626;-54
2023/07/26 09:35:19;;;;;;;0.60;0.60;;;;;14.90;95839.00;;;;5074857;28;20222;-55
2023/07/26 09:37:46;;;;;;;1.00;0.90;;;;;15.10;95845.00;;;;5075039;28;20199;-54
2023/07/26 09:40:15;;;;;;;0.50;0.50;;;;;15.20;95850.00;;;;5075137;28;20258;-55
2023/07/26 09:42:44;;;;;;;0.50;0.50;;;;;15.00;95851.00;;;;5074910;28;20187;-54
2023/07/26 09:45:16;;;;;;;0.60;0.60;;;;;14.90;95865.00;;;;5075094;28;20689;-55
2023/07/26 09:47:43;;;;;;;0.50;0.50;;;;;14.80;95857.00;;;;5074798;28;20659;-54
2023/07/26 09:50:25;;;;;;;0.50;0.50;;;;;14.60;95842.00;;;;5074958;28;20602;-54
2023/07/26 09:52:54;;;;;;;0.90;0.90;;;;;14.80;95845.00;;;;5074737;28;20204;-54
2023/07/26 09:55:25;;;;;;;0.70;0.70;;;;;14.90;95846.00;;;;5074533;28;20211;-55
2023/07/26 09:57:54;;;;;;;0.50;0.50;;;;;15.00;95848.00;;;;5074538;28;20202;-54
2023/07/26 10:00:23;;;;;;;0.60;0.60;;;;;15.40;95851.00;;;;5074682;28;20242;-55
2023/07/26 10:02:56;;;;;;;0.73;0.73;;;;;15.00;95855.00;;;;5074371;28;20191;-54
2023/07/26 10:05:25;;;;;;;0.60;0.60;;;;;14.90;95857.00;;;;5074462;28;20221;-55
2023/07/26 10:07:54;;;;;;;0.80;0.80;;;;;14.90;95880.00;;;;5074336;28;20191;-54
2023/07/26 10:10:23;;;;;;;0.60;0.60;;;;;14.70;95876.00;;;;5074301;28;20188;-54
2023/07/26 10:12:53;;;;;;;0.50;0.50;;;;;14.70;95885.00;;;;5074256;28;20270;-54
2023/07/26 10:15:22;;;;;;;0.50;0.50;;;;;14.30;95883.00;;;;5074204;28;20690;-54
2023/07/26 10:17:53;;;;;;;0.40;0.40;;;;;14.20;95891.00;;;;5074110;28;20666;-54
2023/07/26 10:20:20;;;;;;;0.50;0.50;;;;;14.00;95896.00;;;;5074160;28;20208;-54
2023/07/26 10:22:49;;;;;;;0.63;0.63;;;;;13.40;95889.00;;;;5074259;28;20616;-54
2023/07/26 10:25:17;;;;;;;0.53;0.53;;;;;13.30;95879.00;;;;5073952;28;20698;-54
2023/07/26 10:27:47;;;;;;;0.70;0.70;;;;;13.30;95882.00;;;;5073937;28;20188;-54
2023/07/26 10:30:14;;;;;;;0.63;0.63;;;;;13.60;95870.00;;;;5073917;28;20669;-54
2023/07/26 10:32:48;;;;;;;0.67;0.67;;;;;13.80;95872.00;;;;5074070;28;20581;-54
2023/07/26 10:35:28;;;;;;;0.70;0.70;;;;;14.10;95864.00;;;;5073817;28;20625;-54
2023/07/26 10:37:58;;;;;;;0.57;0.57;;;;;14.00;95865.00;;;;5073149;28;20225;-54
2023/07/26 10:40:33;;;;;;;0.70;0.70;;;;;13.80;95869.00;;;;5073819;28;20679;-53
2023/07/26 10:43:38;;;;;;;0.60;0.60;;;;;13.90;95874.00;;;;5073568;28;20191;-54
2023/07/26 10:46:10;;;;;;;1.57;1.53;;;;;14.30;95869.00;;;;5073847;28;20238;-54
2023/07/26 10:48:39;;;;;;;0.50;0.50;;;;;14.20;95866.00;;;;5073593;28;20651;-54
2023/07/26 10:51:24;;;;;;;0.60;0.60;;;;;14.60;95868.00;;;;5073842;28;20191;-54
2023/07/26 10:53:53;;;;;;;0.90;0.90;;;;;14.70;95860.00;;;;5073767;28;20184;-55
2023/07/26 10:56:26;;;;;;;0.80;0.80;;;;;14.90;95861.00;;;;5073774;28;20211;-53
2023/07/26 10:59:20;;;;;;;0.80;0.80;;;;;14.90;95854.00;;;;5073448;28;20179;-54
2023/07/26 11:01:48;;;;;;;0.73;0.73;;;;;14.60;95856.00;;;;5073470;28;20226;-54
2023/07/26 11:04:19;;;;;;;0.70;0.70;;;;;15.00;95843.00;;;;5073469;28;20253;-54
2023/07/26 11:06:56;;;;;;;0.50;0.50;;;;;14.90;95841.00;;;;5073537;28;20190;-54
2023/07/26 11:09:25;;;;;;;0.90;0.90;;;;;15.20;95843.00;;;;5073547;28;20631;-54
2023/07/26 11:11:58;;;;;;;1.07;1.07;;;;;15.70;95835.00;;;;5073224;28;20241;-54
2023/07/26 11:14:28;;;;;;;0.70;0.70;;;;;16.00;95827.00;;;;5073748;28;20199;-54
2023/07/26 11:16:58;;;;;;;0.60;0.60;;;;;15.60;95821.00;;;;5073622;28;20186;-54
2023/07/26 11:19:25;;;;;;;0.90;0.90;;;;;15.70;95826.00;;;;5073319;28;20199;-54
2023/07/26 11:22:02;;;;;;;0.73;0.73;;;;;15.90;95807.00;;;;5073051;28;20215;-54
2023/07/26 11:24:30;;;;;;;0.80;0.80;;;;;15.90;95841.00;;;;5073123;28;20671;-54
2023/07/26 11:27:03;;;;;;;0.50;0.50;;;;;16.40;95838.00;;;;5073235;28;20192;-54
2023/07/26 11:29:32;;;;;;;0.73;0.73;;;;;16.50;95844.00;;;;5072915;28;20184;-54
2023/07/26 11:32:00;;;;;;;0.67;0.67;;;;;16.00;95846.00;;;;5073047;28;20210;-54
2023/07/26 11:34:27;;;;;;;0.50;0.50;;;;;16.40;95823.00;;;;5072635;28;20223;-54
2023/07/26 11:37:07;;;;;;;0.93;0.93;;;;;16.80;95849.00;;;;5072850;28;20180;-54
2023/07/26 11:39:34;;;;;;;0.77;0.77;;;;;16.90;95822.00;;;;5072886;28;20171;-54
2023/07/26 11:42:03;;;;;;;0.50;0.50;;;;;17.60;95817.00;;;;5073089;28;20246;-54
2023/07/26 11:44:32;;;;;;;0.67;0.67;;;;;17.60;95837.00;;;;5073186;28;20361;-55
2023/07/26 11:47:02;;;;;;;0.67;0.67;;;;;16.90;95827.00;;;;5072887;28;20192;-54
2023/07/26 11:49:31;;;;;;;0.60;0.60;;;;;16.50;95852.00;;;;5077018;28;20599;-54
2023/07/26 11:51:59;;;;;;;0.60;0.60;;;;;16.30;95848.00;;;;5077035;28;20191;-54
2023/07/26 11:54:26;;;;;;;0.77;0.77;;;;;15.90;95867.00;;;;5077242;28;20270;-54
2023/07/26 11:56:55;;;;;;;0.77;0.77;;;;;16.10;95881.00;;;;5077357;28;20204;-54
2023/07/26 11:59:22;;;;;;;0.70;0.70;;;;;15.70;95869.00;;;;5077048;28;20187;-54
2023/07/26 12:01:51;;;;;;;0.53;0.53;;;;;15.50;95877.00;;;;5076640;28;20215;-54
2023/07/26 12:04:19;;;;;;;0.77;0.77;;;;;14.90;95879.00;;;;5076849;28;20195;-54
2023/07/26 12:06:46;;;;;;;0.53;0.53;;;;;14.80;95873.00;;;;5076983;28;20192;-55
2023/07/26 12:09:15;;;;;;;1.00;1.00;;;;;14.80;95878.00;;;;5076651;28;20191;-54
2023/07/26 12:11:49;;;;;;;0.50;0.50;;;;;14.80;95866.00;;;;5076586;28;20198;-55
2023/07/26 12:14:17;;;;;;;0.80;0.80;;;;;15.00;95855.00;;;;5076773;28;20183;-54
2023/07/26 12:16:50;;;;;;;0.63;0.63;;;;;15.20;95854.00;;;;5076423;28;20195;-54
2023/07/26 12:19:21;;;;;;;1.00;1.00;;;;;15.50;95863.00;;;;5076438;28;20183;-54
2023/07/26 12:21:49;;;;;;;0.97;0.97;;;;;15.70;95874.00;;;;5076498;28;20269;-54
2023/07/26 12:24:16;;;;;;;1.00;1.00;;;;;15.80;95870.00;;;;5076287;28;20191;-54
2023/07/26 12:26:47;;;;;;;0.50;0.50;;;;;15.90;95849.00;;;;5058901;28;20773;-54